首页
METAR-TAF:

METAR-TAF

机场 :

埃里克·尼尔森怀特霍斯国际机场

白馬, 育康省, 加拿大

纬度: 60-43N, 经度: 135-04W, 海拔: 703米

当前天气观测

该预报发布于22分钟前的08:41 UTC
静风
温度 0°C
湿度 100%
气压 985 hPa
能見度: 4.8公里
多云层高于400英尺
阴天层高于1200英尺
小雪, 轻雾

METAR: CYXY 170841Z 00000KT 3SM -SN BR BKN004 OVC012 00/M00 A2909 RMK SF5ST3 SLP883

时间: 02:03 (09:03 UTC)

预报

该预报发布于11分钟前的08:52 UTC
预报有效从17日的 08点(UTC)到 17日的 18点(UTC)
风速3节,风向多变
能見度: 3.2公里
多云层高于400英尺
阴天层高于1200英尺
小雨, 雪, 轻雾
短暂存在
从 17日的 08点(UTC)到 17日的 12点(UTC)
能見度: 9.7公里
阴天层高于1500英尺
小雨, 雪
从 17日的 1200点(UTC)
风速3节,风向多变
能見度: 1.6公里
阴天层高于600英尺
小雪, 轻雾
短暂存在
从 17日的 12点(UTC)到 17日的 18点(UTC)
能見度: 4.8公里
阴天层高于1200英尺
小雪

TAF: CYXY 170852Z 1708/1718 VRB03KT 2SM -RASN BR BKN004 OVC012 TEMPO 1708/1712 6SM -RASN OVC015 FM171200 VRB03KT 1SM -SN BR OVC006 TEMPO 1712/1718 3SM -SN OVC012 RMK NXT FCST BY 171200Z

超过4000个机场的气象观测和天气预报(METAR&TAF报告)。

可查询的气象台以黄色和红色小点在地图上表示。

将鼠标移到小点上方,可查看气象台名称。

然后点击查看天气观测和预报。

如需切换地图:点击带黑十字的绿色按钮放大地图;点击带横线的绿色按钮缩小地图;或者点击绿色箭头查看邻近地区的地图。


METAR-TAF: